Time;durP1;ratioP1;P1;durP2;ratioP2;P2;SDS_P1;SDS_P2;PMS_P1;PMS_P2;Temp;Humidity;BMP_temperature;BMP_pressure;BME280_temperature;BME280_humidity;BME280_pressure;Samples;Min_cycle;Max_cycle;Signal;HPM_P1;HPM_P2
2024/01/02 00:00:27;;;;;;;33.30;18.80;;;;;;;4.63;96.45;99123.80;103208;1258;138972;-69
2024/01/02 00:03:14;;;;;;;35.90;19.80;;;;;;;4.63;96.10;99124.13;103901;1256;113202;-69
2024/01/02 00:05:41;;;;;;;29.00;18.40;;;;;;;4.65;95.98;99127.86;103276;1256;138823;-70
2024/01/02 00:08:08;;;;;;;36.00;20.00;;;;;;;4.65;95.92;99131.83;103295;1258;107961;-69
2024/01/02 00:10:35;;;;;;;32.10;18.60;;;;;;;4.65;96.13;99131.98;103028;1260;97846;-68
2024/01/02 00:13:02;;;;;;;37.30;20.20;;;;;;;4.67;96.08;99134.54;103112;1256;138553;-68
2024/01/02 00:15:29;;;;;;;33.40;19.70;;;;;;;4.69;95.89;99127.95;103448;1255;108166;-69
2024/01/02 00:17:56;;;;;;;37.50;20.30;;;;;;;4.72;96.05;99132.36;103326;1254;137977;-70
2024/01/02 00:20:23;;;;;;;36.30;21.00;;;;;;;4.72;95.71;99130.97;103792;1254;107426;-68
2024/01/02 00:22:49;;;;;;;37.00;19.80;;;;;;;4.69;95.62;99131.73;103663;1254;97820;-68
2024/01/02 00:25:17;;;;;;;36.60;20.30;;;;;;;4.68;95.61;99136.59;103070;1258;138518;-70
2024/01/02 00:27:44;;;;;;;36.40;20.70;;;;;;;4.63;95.45;99138.58;102250;1256;1003436;-69
2024/01/02 00:30:12;;;;;;;35.30;20.50;;;;;;;4.60;95.59;99135.58;102998;1256;138620;-69
2024/01/02 00:32:40;;;;;;;34.40;20.00;;;;;;;4.56;95.51;99131.55;103635;1257;107725;-70
2024/01/02 00:35:11;;;;;;;35.30;20.30;;;;;;;4.54;95.74;99138.66;103121;1254;138577;-69
2024/01/02 00:37:38;;;;;;;34.50;19.70;;;;;;;4.54;96.00;99137.63;103146;1256;111247;-70
2024/01/02 00:40:07;;;;;;;32.40;19.00;;;;;;;4.53;96.00;99142.66;103132;1254;107359;-70
2024/01/02 00:42:33;;;;;;;37.30;19.80;;;;;;;4.51;95.90;99148.02;103290;1256;138495;-71
2024/01/02 00:45:02;;;;;;;37.80;20.50;;;;;;;4.51;95.99;99149.59;103095;1256;107718;-70
2024/01/02 00:47:29;;;;;;;32.70;19.70;;;;;;;4.49;95.89;99149.45;103035;1256;139573;-68
2024/01/02 00:49:56;;;;;;;33.30;19.30;;;;;;;4.48;96.20;99146.89;103082;1256;111974;-70
2024/01/02 00:52:23;;;;;;;36.60;20.10;;;;;;;4.48;95.99;99145.52;102951;1258;108101;-69
2024/01/02 00:54:51;;;;;;;30.30;18.10;;;;;;;4.47;96.27;99145.36;102942;1254;138574;-69
2024/01/02 00:57:18;;;;;;;33.10;19.60;;;;;;;4.46;96.15;99147.98;103345;1258;107685;-68
2024/01/02 00:59:45;;;;;;;36.60;19.00;;;;;;;4.44;96.18;99146.80;103128;1259;139141;-70
2024/01/02 01:02:12;;;;;;;34.60;19.00;;;;;;;4.42;96.08;99143.77;103080;1260;111226;-70
2024/01/02 01:04:43;;;;;;;33.60;18.80;;;;;;;4.44;96.16;99151.64;103304;1259;106815;-70
2024/01/02 01:07:10;;;;;;;32.80;18.80;;;;;;;4.43;96.37;99155.09;103365;1258;140252;-70
2024/01/02 01:09:37;;;;;;;32.60;18.10;;;;;;;4.43;96.05;99154.61;103152;1256;107529;-69
2024/01/02 01:12:05;;;;;;;32.70;18.70;;;;;;;4.41;96.56;99150.49;103101;1259;139595;-69
2024/01/02 01:14:31;;;;;;;35.40;18.30;;;;;;;4.42;96.44;99149.96;103228;1255;110359;-69
2024/01/02 01:16:59;;;;;;;36.20;18.80;;;;;;;4.43;96.31;99142.89;103151;1254;107970;-69
2024/01/02 01:19:26;;;;;;;32.50;18.00;;;;;;;4.45;96.46;99141.47;102976;1260;98352;-69
2024/01/02 01:21:53;;;;;;;33.40;19.20;;;;;;;4.44;96.46;99140.10;103214;1256;108413;-69
2024/01/02 01:24:20;;;;;;;29.20;17.90;;;;;;;4.43;96.49;99139.44;103128;1256;138867;-68
2024/01/02 01:26:52;;;;;;;31.40;17.40;;;;;;;4.46;96.55;99140.23;103169;1254;110789;-69
2024/01/02 01:29:19;;;;;;;32.00;18.20;;;;;;;4.47;96.50;99138.31;103049;1256;138590;-69
2024/01/02 01:31:47;;;;;;;35.80;17.80;;;;;;;4.46;96.68;99137.46;103208;1256;98822;-68
2024/01/02 01:34:14;;;;;;;33.40;18.40;;;;;;;4.47;96.45;99143.13;103146;1258;107749;-68
2024/01/02 01:36:41;;;;;;;32.70;18.00;;;;;;;4.47;96.52;99140.36;103078;1254;138369;-68
2024/01/02 01:39:08;;;;;;;27.90;17.60;;;;;;;4.47;96.57;99141.91;103200;1256;111428;-68
2024/01/02 01:41:35;;;;;;;30.60;18.20;;;;;;;4.49;96.59;99141.70;102922;1256;138929;-69
2024/01/02 01:44:02;;;;;;;31.70;18.60;;;;;;;4.50;96.40;99144.96;103099;1257;97917;-69
2024/01/02 01:46:35;;;;;;;30.30;17.80;;;;;;;4.51;96.63;99144.08;103137;1254;107761;-69
2024/01/02 01:49:02;;;;;;;31.60;17.80;;;;;;;4.54;96.46;99138.85;102966;1258;138449;-69
2024/01/02 01:51:30;;;;;;;31.90;17.60;;;;;;;4.56;96.57;99141.36;103237;1258;113263;-69
2024/01/02 01:53:59;;;;;;;25.90;15.80;;;;;;;4.57;96.34;99138.23;103038;1254;138399;-68
2024/01/02 01:56:26;;;;;;;28.30;17.30;;;;;;;4.54;96.29;99146.24;103870;1256;97817;-68
2024/01/02 01:58:53;;;;;;;28.40;16.60;;;;;;;4.54;96.41;99144.67;103044;1260;107497;-68
2024/01/02 02:01:23;;;;;;;34.40;17.30;;;;;;;4.54;96.41;99143.98;102957;1254;138622;-69
2024/01/02 02:03:50;;;;;;;29.30;17.00;;;;;;;4.54;96.28;99142.79;103072;1259;111283;-68
2024/01/02 02:06:17;;;;;;;31.20;17.00;;;;;;;4.53;96.14;99141.96;102876;1260;139832;-68
2024/01/02 02:08:44;;;;;;;33.10;17.60;;;;;;;4.55;96.55;99143.96;103134;1257;98584;-68
2024/01/02 02:11:12;;;;;;;32.70;16.90;;;;;;;4.54;96.46;99142.97;103129;1259;138811;-68
2024/01/02 02:13:40;;;;;;;28.10;16.30;;;;;;;4.53;96.55;99141.77;103283;1254;97857;-68
2024/01/02 02:16:07;;;;;;;29.40;16.90;;;;;;;4.56;96.57;99143.08;103086;1254;112158;-69
2024/01/02 02:18:34;;;;;;;31.00;16.20;;;;;;;4.59;96.58;99144.20;102832;1260;277048;-68
2024/01/02 02:21:01;;;;;;;27.60;15.90;;;;;;;4.61;96.68;99147.08;103203;1260;99403;-68
2024/01/02 02:23:28;;;;;;;27.60;16.20;;;;;;;4.62;96.62;99146.69;102943;1260;140019;-68
2024/01/02 02:25:55;;;;;;;30.20;16.30;;;;;;;4.66;96.82;99145.92;103252;1255;97904;-68
2024/01/02 02:28:22;;;;;;;26.50;15.20;;;;;;;4.69;96.56;99144.48;103311;1254;111520;-69
2024/01/02 02:30:49;;;;;;;31.70;15.90;;;;;;;4.69;96.76;99148.09;103014;1254;139487;-69
2024/01/02 02:33:16;;;;;;;21.30;13.80;;;;;;;4.73;96.86;99147.80;103245;1254;98293;-67
2024/01/02 02:35:43;;;;;;;26.90;14.40;;;;;;;4.73;96.64;99141.62;102998;1258;138421;-68
2024/01/02 02:38:10;;;;;;;27.60;14.40;;;;;;;4.76;96.82;99146.88;102937;1261;97797;-69
2024/01/02 02:40:39;;;;;;;30.30;14.60;;;;;;;4.76;96.57;99142.73;103283;1256;112265;-68
2024/01/02 02:43:07;;;;;;;26.00;15.00;;;;;;;4.78;96.94;99140.27;103078;1255;138389;-69
2024/01/02 02:45:35;;;;;;;23.80;13.70;;;;;;;4.80;96.81;99142.11;103601;1254;97884;-68
2024/01/02 02:48:02;;;;;;;25.10;13.90;;;;;;;4.82;96.93;99141.00;103055;1258;138271;-69
2024/01/02 02:50:29;;;;;;;25.70;13.90;;;;;;;4.84;96.97;99141.66;103140;1258;97806;-69
2024/01/02 02:52:56;;;;;;;25.40;14.60;;;;;;;4.83;96.76;99141.32;103138;1256;111243;-69
2024/01/02 02:55:23;;;;;;;24.60;13.40;;;;;;;4.86;97.01;99140.92;102998;1256;108162;-69
2024/01/02 02:57:50;;;;;;;22.20;13.90;;;;;;;4.88;97.04;99146.20;103135;1256;97785;-68
2024/01/02 03:00:18;;;;;;;26.10;13.50;;;;;;;4.90;97.02;99144.97;102962;1259;138321;-67
2024/01/02 03:02:45;;;;;;;22.10;13.10;;;;;;;4.93;97.33;99148.48;103334;1256;97808;-67
2024/01/02 03:05:14;;;;;;;23.40;13.10;;;;;;;4.95;97.14;99145.16;103239;1254;138427;-68
2024/01/02 03:07:41;;;;;;;22.90;13.30;;;;;;;4.96;96.99;99143.41;103069;1256;107881;-67
2024/01/02 03:10:13;;;;;;;25.50;14.20;;;;;;;4.97;96.90;99143.20;103165;1256;97825;-68
2024/01/02 03:12:41;;;;;;;24.30;13.40;;;;;;;4.97;96.96;99144.41;103100;1256;138693;-68
2024/01/02 03:15:13;;;;;;;24.40;12.70;;;;;;;4.98;96.99;99141.97;103098;1260;97815;-68
2024/01/02 03:17:40;;;;;;;25.50;13.00;;;;;;;5.00;96.88;99142.09;102991;1257;138411;-68
2024/01/02 03:20:09;;;;;;;20.10;12.30;;;;;;;5.01;96.85;99138.11;103123;1256;107703;-68
2024/01/02 03:22:36;;;;;;;23.70;12.70;;;;;;;5.01;96.84;99142.40;103489;1259;98097;-68
2024/01/02 03:25:04;;;;;;;25.70;12.10;;;;;;;5.00;96.82;99139.52;103034;1256;138335;-69
2024/01/02 03:27:31;;;;;;;21.00;11.90;;;;;;;4.98;96.72;99137.50;103123;1256;97719;-68
2024/01/02 03:29:58;;;;;;;22.60;12.30;;;;;;;4.97;96.67;99138.74;103031;1260;138227;-68
2024/01/02 03:32:25;;;;;;;22.40;12.30;;;;;;;4.94;96.90;99132.95;103169;1258;107830;-69
2024/01/02 03:34:52;;;;;;;20.40;12.50;;;;;;;4.97;96.79;99139.08;103160;1254;97870;-68
2024/01/02 03:37:19;;;;;;;20.80;12.40;;;;;;;4.97;96.89;99139.77;103000;1254;138929;-68
2024/01/02 03:39:46;;;;;;;22.90;12.50;;;;;;;4.98;96.88;99134.73;103202;1254;97762;-68
2024/01/02 03:42:13;;;;;;;20.70;12.20;;;;;;;4.99;97.03;99134.02;103037;1255;138335;-68
2024/01/02 03:44:40;;;;;;;24.00;11.90;;;;;;;5.01;97.15;99132.76;103020;1258;108186;-68
2024/01/02 03:47:07;;;;;;;21.80;11.90;;;;;;;5.03;97.27;99132.71;103009;1254;138711;-68
2024/01/02 03:49:34;;;;;;;23.90;11.70;;;;;;;5.05;97.03;99135.25;103088;1254;107825;-68
2024/01/02 03:52:01;;;;;;;19.60;10.90;;;;;;;5.07;97.11;99132.61;103216;1255;97792;-68
2024/01/02 03:54:27;;;;;;;22.00;11.30;;;;;;;5.06;96.80;99134.02;103017;1258;138377;-69
2024/01/02 03:56:54;;;;;;;18.90;10.60;;;;;;;5.03;96.81;99135.98;103240;1254;107231;-70
2024/01/02 03:59:21;;;;;;;19.40;10.50;;;;;;;5.01;96.95;99132.58;103169;1256;139495;-69
2024/01/02 04:01:48;;;;;;;22.40;10.50;;;;;;;5.01;96.99;99131.56;103312;1256;107113;-68
2024/01/02 04:04:15;;;;;;;20.40;10.90;;;;;;;5.00;97.02;99131.93;103087;1256;97817;-68
2024/01/02 04:06:42;;;;;;;20.10;10.70;;;;;;;4.99;97.00;99135.04;103025;1256;138361;-69
2024/01/02 04:09:10;;;;;;;21.20;10.90;;;;;;;5.00;97.08;99134.84;103142;1256;107733;-68
2024/01/02 04:11:37;;;;;;;20.30;10.30;;;;;;;5.01;97.05;99136.89;103291;1255;138518;-68
2024/01/02 04:14:04;;;;;;;18.10;10.30;;;;;;;5.01;97.20;99137.58;103252;1254;108278;-68
2024/01/02 04:16:31;;;;;;;20.00;10.10;;;;;;;5.02;97.31;99135.17;103213;1259;97683;-68
2024/01/02 04:18:57;;;;;;;16.50;9.70;;;;;;;5.07;97.36;99137.09;103461;1256;138990;-68
2024/01/02 04:21:24;;;;;;;23.40;11.00;;;;;;;5.08;97.15;99133.60;103211;1256;107401;-68
2024/01/02 04:23:51;;;;;;;21.30;11.20;;;;;;;5.09;97.19;99129.79;103136;1256;138521;-68
2024/01/02 04:26:18;;;;;;;18.10;10.20;;;;;;;5.08;96.97;99130.33;103067;1255;108519;-68
2024/01/02 04:28:45;;;;;;;22.20;11.00;;;;;;;5.08;97.00;99133.44;103168;1256;97802;-67
2024/01/02 04:31:12;;;;;;;18.50;10.30;;;;;;;5.08;97.12;99132.23;103150;1260;138457;-68
2024/01/02 04:33:38;;;;;;;21.80;11.20;;;;;;;5.10;97.21;99130.95;103010;1256;107587;-68
2024/01/02 04:36:07;;;;;;;19.60;9.80;;;;;;;5.12;97.26;99131.23;102931;1255;139006;-67
2024/01/02 04:38:33;;;;;;;19.20;10.10;;;;;;;5.12;97.07;99130.40;103166;1259;106285;-68
2024/01/02 04:41:00;;;;;;;21.20;10.50;;;;;;;5.10;96.85;99129.93;103105;1260;97830;-68
2024/01/02 04:43:27;;;;;;;19.70;10.20;;;;;;;5.09;96.97;99130.64;103106;1256;112599;-67
2024/01/02 04:45:54;;;;;;;20.30;11.60;;;;;;;5.10;97.12;99129.59;103031;1259;107799;-68
2024/01/02 04:48:21;;;;;;;18.10;9.60;;;;;;;5.11;97.10;99128.70;103000;1256;138377;-68
2024/01/02 04:50:49;;;;;;;18.10;10.40;;;;;;;5.11;97.07;99129.56;103030;1256;108849;-68
2024/01/02 04:53:15;;;;;;;19.30;9.80;;;;;;;5.11;97.23;99130.59;102849;1256;138577;-68
2024/01/02 04:55:42;;;;;;;19.80;10.00;;;;;;;5.11;97.09;99125.08;103056;1259;110694;-69
2024/01/02 04:58:09;;;;;;;19.70;10.60;;;;;;;5.12;97.13;99130.04;103074;1259;107727;-68
2024/01/02 05:00:36;;;;;;;17.60;10.30;;;;;;;5.14;97.28;99129.65;103088;1259;138787;-67
2024/01/02 05:03:03;;;;;;;17.10;10.30;;;;;;;5.14;97.21;99131.19;103129;1256;108500;-68
2024/01/02 05:05:30;;;;;;;20.00;11.10;;;;;;;5.17;97.14;99132.33;103316;1255;138585;-68
2024/01/02 05:07:57;;;;;;;20.00;10.40;;;;;;;5.17;97.08;99131.78;103121;1254;111351;-68
2024/01/02 05:10:24;;;;;;;20.60;10.70;;;;;;;5.18;97.26;99137.61;103172;1260;108389;-69
2024/01/02 05:12:51;;;;;;;22.00;11.70;;;;;;;5.18;96.99;99135.39;103059;1256;138531;-67
2024/01/02 05:15:18;;;;;;;21.30;11.40;;;;;;;5.18;97.05;99136.76;103237;1258;107895;-67
2024/01/02 05:17:46;;;;;;;19.00;11.50;;;;;;;5.14;96.81;99133.08;103120;1254;139106;-70
2024/01/02 05:20:14;;;;;;;19.60;11.00;;;;;;;5.17;97.06;99137.14;103238;1258;112962;-68
2024/01/02 05:22:41;;;;;;;23.20;12.00;;;;;;;5.18;97.14;99137.11;103400;1254;107716;-69
2024/01/02 05:25:09;;;;;;;16.10;11.40;;;;;;;5.21;97.20;99136.52;103078;1255;139500;-68
2024/01/02 05:27:36;;;;;;;21.90;12.10;;;;;;;5.22;97.08;99139.61;103329;1254;107358;-70
2024/01/02 05:30:03;;;;;;;19.50;12.10;;;;;;;5.19;97.07;99139.83;103396;1256;138812;-69
2024/01/02 05:32:30;;;;;;;20.60;12.30;;;;;;;5.16;97.02;99144.90;104146;1256;110465;-69
2024/01/02 05:34:58;;;;;;;20.80;12.40;;;;;;;5.16;97.16;99145.44;102784;1256;107435;-67
2024/01/02 05:37:25;;;;;;;22.80;12.20;;;;;;;5.17;97.15;99147.14;103124;1258;98334;-68
2024/01/02 05:39:52;;;;;;;21.30;12.50;;;;;;;5.18;97.32;99147.45;103072;1256;108553;-68
2024/01/02 05:42:19;;;;;;;20.90;12.80;;;;;;;5.14;96.98;99143.94;103036;1256;138592;-68
2024/01/02 05:44:47;;;;;;;21.40;12.80;;;;;;;5.11;97.00;99147.98;103201;1254;111493;-69
2024/01/02 05:47:13;;;;;;;19.20;12.40;;;;;;;5.11;97.25;99148.17;102980;1256;139648;-68
2024/01/02 05:49:40;;;;;;;21.40;13.40;;;;;;;5.13;97.43;99149.83;103011;1259;97701;-69
2024/01/02 05:52:07;;;;;;;18.80;12.90;;;;;;;5.15;97.72;99147.35;103069;1256;108155;-68
2024/01/02 05:54:34;;;;;;;18.20;12.20;;;;;;;5.16;97.64;99146.46;103095;1256;138583;-68
2024/01/02 05:57:02;;;;;;;23.00;12.80;;;;;;;5.17;97.62;99149.20;102495;1254;1002727;-68
2024/01/02 05:59:29;;;;;;;18.60;11.90;;;;;;;5.17;97.75;99151.44;103106;1256;138843;-68
2024/01/02 06:01:56;;;;;;;23.00;12.90;;;;;;;5.17;97.90;99152.80;102981;1256;97792;-69
2024/01/02 06:04:23;;;;;;;18.80;12.90;;;;;;;5.18;97.70;99153.98;103140;1259;107505;-69
2024/01/02 06:06:50;;;;;;;24.50;13.10;;;;;;;5.18;97.79;99151.08;103081;1259;139138;-68
2024/01/02 06:09:17;;;;;;;22.90;13.10;;;;;;;5.18;97.76;99152.96;103228;1256;112267;-69
2024/01/02 06:11:44;;;;;;;20.00;13.00;;;;;;;5.17;98.09;99148.16;102809;1256;139043;-68
2024/01/02 06:14:11;;;;;;;23.60;13.00;;;;;;;5.13;97.84;99147.41;103202;1254;97806;-69
2024/01/02 06:16:39;;;;;;;21.10;12.10;;;;;;;5.13;97.83;99147.23;103203;1255;107679;-68
2024/01/02 06:19:06;;;;;;;19.90;13.50;;;;;;;5.13;97.88;99152.05;103090;1257;138571;-67
2024/01/02 06:21:33;;;;;;;20.50;13.00;;;;;;;5.11;97.91;99149.20;103116;1258;112019;-68
2024/01/02 06:24:00;;;;;;;20.60;12.20;;;;;;;5.09;97.85;99150.98;101923;1256;1003578;-67
2024/01/02 06:26:27;;;;;;;18.20;12.30;;;;;;;5.09;98.00;99154.44;103095;1258;97714;-68
2024/01/02 06:28:54;;;;;;;16.30;12.10;;;;;;;5.08;98.12;99154.98;102934;1261;108027;-68
2024/01/02 06:31:23;;;;;;;17.10;12.20;;;;;;;5.09;98.15;99156.50;103062;1258;138385;-68
2024/01/02 06:33:50;;;;;;;19.50;12.80;;;;;;;5.09;98.08;99161.48;103155;1254;111137;-67
2024/01/02 06:36:18;;;;;;;19.60;12.70;;;;;;;5.08;98.20;99163.59;103049;1256;139209;-67
2024/01/02 06:38:45;;;;;;;19.90;12.60;;;;;;;5.09;98.28;99165.45;103197;1256;97799;-68
2024/01/02 06:41:12;;;;;;;19.20;11.80;;;;;;;5.08;98.25;99168.23;102997;1259;138749;-68
2024/01/02 06:43:39;;;;;;;20.10;12.10;;;;;;;5.08;98.21;99167.55;103109;1256;97814;-68
2024/01/02 06:46:06;;;;;;;16.80;11.60;;;;;;;5.07;98.10;99166.02;103117;1256;111569;-68
2024/01/02 06:48:33;;;;;;;18.00;11.70;;;;;;;5.05;98.09;99165.05;103000;1256;138406;-68
2024/01/02 06:51:00;;;;;;;16.40;11.70;;;;;;;5.04;98.32;99161.13;103179;1256;99469;-68
2024/01/02 06:53:27;;;;;;;19.50;11.50;;;;;;;5.03;98.35;99163.73;103073;1254;138344;-67
2024/01/02 06:55:54;;;;;;;16.20;11.40;;;;;;;5.00;98.21;99163.80;103184;1256;98489;-68
2024/01/02 06:58:21;;;;;;;15.50;10.50;;;;;;;4.98;98.28;99164.56;103205;1256;111018;-68
2024/01/02 07:00:48;;;;;;;16.40;10.90;;;;;;;4.95;98.45;99168.75;103093;1256;138446;-68
2024/01/02 07:03:15;;;;;;;18.50;11.30;;;;;;;4.93;98.32;99165.54;103144;1258;97926;-69
2024/01/02 07:05:42;;;;;;;15.60;10.80;;;;;;;4.91;98.40;99161.80;103422;1256;138938;-69
2024/01/02 07:08:10;;;;;;;16.20;11.40;;;;;;;4.94;98.73;99163.63;103159;1256;98119;-69
2024/01/02 07:10:37;;;;;;;14.60;10.50;;;;;;;4.93;98.63;99162.11;103087;1258;111573;-69
2024/01/02 07:13:04;;;;;;;14.30;10.50;;;;;;;4.94;98.72;99162.41;103049;1256;138389;-68
2024/01/02 07:15:31;;;;;;;13.60;9.80;;;;;;;4.94;98.71;99162.74;103312;1255;98443;-68
2024/01/02 07:17:58;;;;;;;12.40;9.80;;;;;;;4.93;98.57;99162.44;103053;1256;138140;-70
2024/01/02 07:20:26;;;;;;;12.50;9.60;;;;;;;4.91;98.42;99161.66;103066;1258;97876;-68
2024/01/02 07:22:53;;;;;;;13.90;9.00;;;;;;;4.90;98.44;99161.84;103256;1256;111530;-68
2024/01/02 07:25:20;;;;;;;12.30;8.90;;;;;;;4.91;98.65;99155.80;102991;1256;138015;-68
2024/01/02 07:27:47;;;;;;;11.50;8.60;;;;;;;4.94;98.85;99153.96;103117;1257;98507;-69
2024/01/02 07:30:15;;;;;;;11.20;8.10;;;;;;;4.97;98.86;99150.44;103078;1258;138434;-68
2024/01/02 07:32:43;;;;;;;11.30;7.40;;;;;;;5.02;98.79;99157.55;103819;1258;98452;-67
2024/01/02 07:35:10;;;;;;;10.10;7.60;;;;;;;5.06;98.80;99156.41;103085;1258;138514;-68
2024/01/02 07:37:38;;;;;;;9.50;6.50;;;;;;;5.11;98.66;99155.59;103144;1256;110789;-68
2024/01/02 07:40:07;;;;;;;9.60;6.00;;;;;;;5.16;98.54;99153.38;103223;1256;98333;-68
2024/01/02 07:42:33;;;;;;;9.00;6.20;;;;;;;5.22;98.50;99155.12;103177;1256;138180;-68
2024/01/02 07:45:00;;;;;;;9.70;6.00;;;;;;;5.28;98.31;99157.35;103284;1256;97896;-68
2024/01/02 07:47:27;;;;;;;8.40;5.20;;;;;;;5.32;98.06;99163.09;103014;1256;138800;-68
2024/01/02 07:49:54;;;;;;;8.30;5.40;;;;;;;5.33;97.83;99162.02;103125;1256;108109;-68
2024/01/02 07:52:22;;;;;;;6.30;5.10;;;;;;;5.34;97.45;99161.64;103164;1261;97793;-66
2024/01/02 07:54:49;;;;;;;9.20;5.40;;;;;;;5.35;97.49;99157.98;102982;1260;138191;-66
2024/01/02 07:57:16;;;;;;;9.40;5.90;;;;;;;5.37;97.68;99159.14;103134;1256;97799;-67
2024/01/02 07:59:43;;;;;;;8.90;5.70;;;;;;;5.41;97.62;99160.77;103036;1258;138177;-68
2024/01/02 08:02:10;;;;;;;10.00;6.00;;;;;;;5.43;97.41;99160.20;103318;1255;107450;-67
2024/01/02 08:04:37;;;;;;;8.10;6.50;;;;;;;5.44;97.27;99164.30;103117;1255;97926;-68
2024/01/02 08:07:04;;;;;;;9.70;7.20;;;;;;;5.46;97.25;99170.27;103055;1256;137509;-68
2024/01/02 08:09:31;;;;;;;10.30;7.80;;;;;;;5.49;97.43;99175.00;103133;1256;97904;-69
2024/01/02 08:11:58;;;;;;;9.30;7.80;;;;;;;5.49;97.43;99169.84;103121;1259;138846;-68
2024/01/02 08:14:25;;;;;;;9.70;7.60;;;;;;;5.51;97.12;99170.32;103090;1260;107816;-69
2024/01/02 08:16:52;;;;;;;12.30;8.00;;;;;;;5.48;97.18;99165.73;103159;1256;98259;-67
2024/01/02 08:19:20;;;;;;;10.80;7.90;;;;;;;5.52;97.37;99168.36;103066;1256;138152;-67
2024/01/02 08:21:47;;;;;;;10.20;7.70;;;;;;;5.54;97.19;99162.80;103178;1256;97795;-67
2024/01/02 08:24:13;;;;;;;12.80;8.00;;;;;;;5.61;97.39;99160.89;103052;1260;138328;-67
2024/01/02 08:26:43;;;;;;;10.10;7.60;;;;;;;5.68;97.17;99159.09;103167;1254;107504;-69
2024/01/02 08:29:10;;;;;;;12.40;8.50;;;;;;;5.73;96.97;99156.72;103236;1259;137922;-69
2024/01/02 08:31:37;;;;;;;11.70;8.60;;;;;;;5.78;96.76;99162.98;103178;1256;108912;-68
2024/01/02 08:34:05;;;;;;;14.60;9.60;;;;;;;5.77;96.36;99163.35;103171;1261;97782;-66
2024/01/02 08:36:32;;;;;;;12.80;10.30;;;;;;;5.75;96.53;99160.11;103108;1257;137581;-67
2024/01/02 08:38:59;;;;;;;13.10;8.90;;;;;;;5.78;96.71;99164.18;102989;1256;107114;-68
2024/01/02 08:41:26;;;;;;;13.40;8.80;;;;;;;5.80;96.64;99166.52;103036;1260;140545;-68
2024/01/02 08:43:55;;;;;;;12.40;9.60;;;;;;;5.81;96.25;99169.07;103238;1254;108422;-67
2024/01/02 08:46:22;;;;;;;13.30;9.70;;;;;;;5.84;96.57;99169.50;103246;1258;97907;-68
2024/01/02 08:48:49;;;;;;;13.40;9.40;;;;;;;5.90;96.47;99170.53;103102;1259;138665;-66
2024/01/02 08:51:17;;;;;;;14.70;10.70;;;;;;;5.93;96.29;99166.85;103255;1254;108156;-67
2024/01/02 08:53:44;;;;;;;15.30;11.30;;;;;;;5.95;96.00;99166.27;103083;1255;138029;-67
2024/01/02 08:56:11;;;;;;;14.40;11.10;;;;;;;5.95;95.86;99165.25;103240;1259;108386;-68
2024/01/02 08:58:38;;;;;;;14.90;11.20;;;;;;;5.96;96.08;99165.38;103220;1257;97698;-67
2024/01/02 09:01:05;;;;;;;16.60;11.30;;;;;;;5.98;95.98;99168.23;103164;1256;137699;-68
2024/01/02 09:03:32;;;;;;;18.50;12.00;;;;;;;6.00;95.93;99165.08;103167;1256;108563;-67
2024/01/02 09:05:59;;;;;;;16.00;12.50;;;;;;;5.99;95.82;99167.36;102950;1256;138746;-67
2024/01/02 09:08:26;;;;;;;17.30;11.90;;;;;;;5.99;95.53;99166.16;103001;1261;108180;-67
2024/01/02 09:10:53;;;;;;;16.60;12.40;;;;;;;5.95;95.51;99166.64;102924;1261;97811;-67
2024/01/02 09:13:20;;;;;;;17.70;13.10;;;;;;;5.94;95.48;99170.27;102804;1258;138707;-67
2024/01/02 09:15:47;;;;;;;16.50;12.00;;;;;;;5.94;95.58;99172.86;102956;1261;107726;-67
2024/01/02 09:18:14;;;;;;;15.70;12.60;;;;;;;5.93;95.64;99174.43;102899;1257;138995;-68
2024/01/02 09:20:44;;;;;;;15.90;12.40;;;;;;;5.93;95.61;99179.62;103040;1256;107012;-69
2024/01/02 09:23:11;;;;;;;15.50;11.80;;;;;;;5.95;95.86;99185.95;103110;1261;138828;-68
2024/01/02 09:25:44;;;;;;;16.40;11.40;;;;;;;5.98;95.78;99186.53;103022;1261;111708;-68
2024/01/02 09:28:13;;;;;;;14.60;10.70;;;;;;;6.05;96.19;99182.01;103074;1260;107431;-66
2024/01/02 09:30:46;;;;;;;17.20;11.10;;;;;;;6.18;96.36;99179.38;102772;1260;138580;-66
2024/01/02 09:33:13;;;;;;;16.60;12.20;;;;;;;6.24;95.73;99177.08;102030;1262;109738;-66
2024/01/02 09:35:42;;;;;;;16.40;12.20;;;;;;;6.34;95.84;99177.31;102384;1260;138097;-66
2024/01/02 09:38:10;;;;;;;15.90;12.30;;;;;;;6.41;95.53;99178.29;102818;1259;112305;-65
2024/01/02 09:40:55;;;;;;;14.90;12.70;;;;;;;6.41;95.06;99178.61;102562;1259;108447;-66
2024/01/02 09:43:39;;;;;;;17.50;12.60;;;;;;;6.42;94.85;99174.80;102500;1261;137868;-66
2024/01/02 09:46:15;;;;;;;16.50;12.90;;;;;;;6.42;94.67;99179.09;103367;1261;107094;-67
2024/01/02 09:48:59;;;;;;;16.10;12.40;;;;;;;6.41;94.52;99183.61;103223;1259;140811;-67
2024/01/02 09:51:44;;;;;;;16.10;12.40;;;;;;;6.39;94.59;99181.27;103756;1257;111640;-67
2024/01/02 09:54:28;;;;;;;14.80;12.60;;;;;;;6.37;94.40;99182.90;102832;1256;138577;-67
2024/01/02 09:57:05;;;;;;;18.60;12.60;;;;;;;6.32;94.15;99186.88;102610;1255;97878;-65
2024/01/02 09:59:47;;;;;;;16.10;11.40;;;;;;;6.24;94.03;99186.95;103080;1258;139196;-66
2024/01/02 10:02:35;;;;;;;16.30;12.30;;;;;;;6.20;94.48;99188.96;103415;1256;95887;-66
2024/01/02 10:05:16;;;;;;;16.00;11.60;;;;;;;6.21;94.75;99188.41;102777;1259;110915;-64
2024/01/02 10:08:02;;;;;;;14.70;12.10;;;;;;;6.21;94.63;99189.09;103643;1258;108600;-67
2024/01/02 10:10:36;;;;;;;15.30;11.10;;;;;;;6.22;94.60;99188.56;102789;1256;99499;-67
2024/01/02 10:13:18;;;;;;;15.20;11.60;;;;;;;6.20;94.56;99188.79;104098;1255;138549;-65
2024/01/02 10:15:53;;;;;;;15.10;11.60;;;;;;;6.19;94.69;99187.28;103411;1259;97818;-65
2024/01/02 10:18:29;;;;;;;18.40;11.80;;;;;;;6.17;94.58;99184.92;103658;1254;138504;-65
2024/01/02 10:21:07;;;;;;;16.30;11.70;;;;;;;6.15;94.57;99181.70;104168;1255;107356;-65
2024/01/02 10:23:46;;;;;;;17.60;12.20;;;;;;;6.15;94.84;99174.13;103217;1256;138645;-66
2024/01/02 10:26:15;;;;;;;15.10;10.70;;;;;;;6.17;94.67;99171.47;104171;1255;108603;-65
2024/01/02 10:28:44;;;;;;;13.80;10.10;;;;;;;6.18;94.88;99166.09;103758;1256;97869;-67
2024/01/02 10:31:21;;;;;;;13.40;9.90;;;;;;;6.24;95.01;99155.85;103494;1257;138676;-66
2024/01/02 10:33:54;;;;;;;14.00;9.30;;;;;;;6.31;94.75;99154.09;102785;1258;107149;-65
2024/01/02 10:36:22;;;;;;;12.30;9.40;;;;;;;6.37;94.71;99151.31;102603;1260;138496;-66
2024/01/02 10:39:02;;;;;;;15.50;10.10;;;;;;;6.43;94.43;99149.91;102756;1256;107853;-65
2024/01/02 10:41:50;;;;;;;13.50;10.00;;;;;;;6.44;94.27;99139.68;102893;1261;138187;-65
2024/01/02 10:44:30;;;;;;;15.80;12.40;;;;;;;6.51;94.22;99144.64;103064;1256;111134;-65
2024/01/02 10:47:05;;;;;;;19.40;11.50;;;;;;;6.58;94.29;99134.70;103529;1259;106967;-66
2024/01/02 10:49:40;;;;;;;14.70;11.80;;;;;;;6.60;93.97;99134.13;103082;1254;97718;-66
2024/01/02 10:52:24;;;;;;;14.30;11.60;;;;;;;6.59;93.91;99128.96;103192;1260;107018;-65
2024/01/02 10:55:03;;;;;;;16.40;12.50;;;;;;;6.59;93.67;99119.98;103690;1255;140654;-67
2024/01/02 10:57:44;;;;;;;13.80;11.50;;;;;;;6.60;93.74;99120.64;102995;1256;112207;-66
2024/01/02 11:00:20;;;;;;;12.90;10.90;;;;;;;6.64;93.77;99117.25;102829;1258;138652;-65
2024/01/02 11:02:54;;;;;;;16.40;11.30;;;;;;;6.64;93.30;99116.73;102993;1257;97907;-66
2024/01/02 11:05:29;;;;;;;15.90;11.80;;;;;;;6.60;93.27;99114.44;103258;1256;138571;-66
2024/01/02 11:08:07;;;;;;;15.70;11.70;;;;;;;6.56;93.18;99115.78;103395;1260;96688;-66
2024/01/02 11:10:42;;;;;;;14.60;12.20;;;;;;;6.56;93.15;99116.14;103604;1259;110914;-66
2024/01/02 11:13:13;;;;;;;15.90;11.00;;;;;;;6.50;93.17;99117.04;103605;1256;138710;-66
2024/01/02 11:15:48;;;;;;;16.70;10.90;;;;;;;6.52;93.49;99117.85;102935;1260;99335;-67
2024/01/02 11:18:17;;;;;;;14.40;11.00;;;;;;;6.51;93.27;99114.42;104038;1257;138313;-66